sensor_id;sensor_type;location;lat;lon;timestamp;P1;durP1;ratioP1;P2;durP2;ratioP2
40945;SDS011;55635;50.264;11.918;2023-08-07T00:01:25;0.05;;;0.05;;
40945;SDS011;55635;50.264;11.918;2023-08-07T00:04:06;0.50;;;0.10;;
40945;SDS011;55635;50.264;11.918;2023-08-07T00:06:47;3.65;;;0.10;;
40945;SDS011;55635;50.264;11.918;2023-08-07T00:09:28;0.60;;;0.00;;
40945;SDS011;55635;50.264;11.918;2023-08-07T00:12:09;1.33;;;0.20;;
40945;SDS011;55635;50.264;11.918;2023-08-07T00:14:50;0.10;;;0.00;;
40945;SDS011;55635;50.264;11.918;2023-08-07T00:17:31;2.03;;;0.10;;
40945;SDS011;55635;50.264;11.918;2023-08-07T00:20:12;1.48;;;0.00;;
40945;SDS011;55635;50.264;11.918;2023-08-07T00:22:53;1.65;;;0.20;;
40945;SDS011;55635;50.264;11.918;2023-08-07T00:25:34;0.00;;;0.00;;
40945;SDS011;55635;50.264;11.918;2023-08-07T00:28:14;1.55;;;0.05;;
40945;SDS011;55635;50.264;11.918;2023-08-07T00:30:56;1.08;;;0.00;;
40945;SDS011;55635;50.264;11.918;2023-08-07T00:33:37;0.55;;;0.00;;
40945;SDS011;55635;50.264;11.918;2023-08-07T00:36:18;1.35;;;0.00;;
40945;SDS011;55635;50.264;11.918;2023-08-07T00:39:02;0.00;;;0.00;;
40945;SDS011;55635;50.264;11.918;2023-08-07T00:41:46;0.10;;;0.00;;
40945;SDS011;55635;50.264;11.918;2023-08-07T00:44:27;1.27;;;0.10;;
40945;SDS011;55635;50.264;11.918;2023-08-07T00:47:08;0.00;;;0.00;;
40945;SDS011;55635;50.264;11.918;2023-08-07T00:49:49;1.02;;;0.00;;
40945;SDS011;55635;50.264;11.918;2023-08-07T00:52:31;0.03;;;0.03;;
40945;SDS011;55635;50.264;11.918;2023-08-07T00:55:12;0.50;;;0.00;;
40945;SDS011;55635;50.264;11.918;2023-08-07T00:57:53;0.00;;;0.00;;
40945;SDS011;55635;50.264;11.918;2023-08-07T01:00:34;1.17;;;0.00;;
40945;SDS011;55635;50.264;11.918;2023-08-07T01:03:15;0.00;;;0.00;;
40945;SDS011;55635;50.264;11.918;2023-08-07T01:05:56;0.00;;;0.00;;
40945;SDS011;55635;50.264;11.918;2023-08-07T01:08:37;0.10;;;0.00;;
40945;SDS011;55635;50.264;11.918;2023-08-07T01:14:25;0.00;;;0.00;;
40945;SDS011;55635;50.264;11.918;2023-08-07T01:17:41;0.00;;;0.00;;
40945;SDS011;55635;50.264;11.918;2023-08-07T01:20:24;0.03;;;0.03;;
40945;SDS011;55635;50.264;11.918;2023-08-07T01:23:05;0.30;;;0.00;;
40945;SDS011;55635;50.264;11.918;2023-08-07T01:25:46;0.00;;;0.00;;
40945;SDS011;55635;50.264;11.918;2023-08-07T01:28:29;0.00;;;0.00;;
40945;SDS011;55635;50.264;11.918;2023-08-07T01:31:16;0.00;;;0.00;;
40945;SDS011;55635;50.264;11.918;2023-08-07T01:34:02;0.00;;;0.00;;
40945;SDS011;55635;50.264;11.918;2023-08-07T01:36:48;0.00;;;0.00;;
40945;SDS011;55635;50.264;11.918;2023-08-07T01:39:30;0.00;;;0.00;;
40945;SDS011;55635;50.264;11.918;2023-08-07T01:42:11;0.00;;;0.00;;
40945;SDS011;55635;50.264;11.918;2023-08-07T01:44:52;1.63;;;0.20;;
40945;SDS011;55635;50.264;11.918;2023-08-07T01:47:33;0.10;;;0.00;;
40945;SDS011;55635;50.264;11.918;2023-08-07T01:50:14;0.88;;;0.03;;
40945;SDS011;55635;50.264;11.918;2023-08-07T01:52:55;0.32;;;0.13;;
40945;SDS011;55635;50.264;11.918;2023-08-07T01:55:37;0.20;;;0.08;;
40945;SDS011;55635;50.264;11.918;2023-08-07T01:58:18;0.25;;;0.10;;
40945;SDS011;55635;50.264;11.918;2023-08-07T02:00:59;1.05;;;0.38;;
40945;SDS011;55635;50.264;11.918;2023-08-07T02:03:40;0.10;;;0.10;;
40945;SDS011;55635;50.264;11.918;2023-08-07T02:06:21;0.98;;;0.20;;
40945;SDS011;55635;50.264;11.918;2023-08-07T02:09:02;0.73;;;0.20;;
40945;SDS011;55635;50.264;11.918;2023-08-07T02:11:42;0.10;;;0.08;;
40945;SDS011;55635;50.264;11.918;2023-08-07T02:14:24;0.10;;;0.10;;
40945;SDS011;55635;50.264;11.918;2023-08-07T02:17:05;0.15;;;0.10;;
40945;SDS011;55635;50.264;11.918;2023-08-07T02:19:46;0.60;;;0.20;;
40945;SDS011;55635;50.264;11.918;2023-08-07T02:22:27;1.30;;;0.20;;
40945;SDS011;55635;50.264;11.918;2023-08-07T02:25:08;1.25;;;0.10;;
40945;SDS011;55635;50.264;11.918;2023-08-07T02:27:51;1.75;;;0.20;;
40945;SDS011;55635;50.264;11.918;2023-08-07T02:30:32;0.15;;;0.10;;
40945;SDS011;55635;50.264;11.918;2023-08-07T02:33:13;0.20;;;0.20;;
40945;SDS011;55635;50.264;11.918;2023-08-07T02:35:54;0.15;;;0.10;;
40945;SDS011;55635;50.264;11.918;2023-08-07T02:38:34;0.20;;;0.20;;
40945;SDS011;55635;50.264;11.918;2023-08-07T02:41:16;0.13;;;0.13;;
40945;SDS011;55635;50.264;11.918;2023-08-07T02:43:57;0.20;;;0.20;;
40945;SDS011;55635;50.264;11.918;2023-08-07T02:46:38;0.10;;;0.10;;
40945;SDS011;55635;50.264;11.918;2023-08-07T02:49:19;1.60;;;0.20;;
40945;SDS011;55635;50.264;11.918;2023-08-07T02:52:00;0.20;;;0.17;;
40945;SDS011;55635;50.264;11.918;2023-08-07T02:54:41;1.00;;;0.00;;
40945;SDS011;55635;50.264;11.918;2023-08-07T02:57:21;0.30;;;0.00;;
40945;SDS011;55635;50.264;11.918;2023-08-07T03:00:02;0.00;;;0.00;;
40945;SDS011;55635;50.264;11.918;2023-08-07T03:02:44;0.05;;;0.05;;
40945;SDS011;55635;50.264;11.918;2023-08-07T03:05:25;0.90;;;0.00;;
40945;SDS011;55635;50.264;11.918;2023-08-07T03:08:09;0.10;;;0.00;;
40945;SDS011;55635;50.264;11.918;2023-08-07T03:10:51;0.70;;;0.00;;
40945;SDS011;55635;50.264;11.918;2023-08-07T03:13:33;0.00;;;0.00;;
40945;SDS011;55635;50.264;11.918;2023-08-07T03:16:14;1.20;;;0.00;;
40945;SDS011;55635;50.264;11.918;2023-08-07T03:18:56;0.00;;;0.00;;
40945;SDS011;55635;50.264;11.918;2023-08-07T03:21:37;0.20;;;0.03;;
40945;SDS011;55635;50.264;11.918;2023-08-07T03:24:18;0.00;;;0.00;;
40945;SDS011;55635;50.264;11.918;2023-08-07T03:27:00;0.00;;;0.00;;
40945;SDS011;55635;50.264;11.918;2023-08-07T03:29:41;0.00;;;0.00;;
40945;SDS011;55635;50.264;11.918;2023-08-07T03:32:22;1.75;;;0.08;;
40945;SDS011;55635;50.264;11.918;2023-08-07T03:35:03;1.40;;;0.10;;
40945;SDS011;55635;50.264;11.918;2023-08-07T03:37:44;3.53;;;0.43;;
40945;SDS011;55635;50.264;11.918;2023-08-07T03:40:25;0.15;;;0.10;;
40945;SDS011;55635;50.264;11.918;2023-08-07T03:43:06;0.95;;;0.13;;
40945;SDS011;55635;50.264;11.918;2023-08-07T03:45:47;0.10;;;0.03;;
40945;SDS011;55635;50.264;11.918;2023-08-07T03:48:35;0.30;;;0.20;;
40945;SDS011;55635;50.264;11.918;2023-08-07T03:51:17;0.10;;;0.10;;
40945;SDS011;55635;50.264;11.918;2023-08-07T03:54:02;0.10;;;0.10;;
40945;SDS011;55635;50.264;11.918;2023-08-07T03:56:43;0.17;;;0.17;;
40945;SDS011;55635;50.264;11.918;2023-08-07T03:59:24;0.13;;;0.13;;
40945;SDS011;55635;50.264;11.918;2023-08-07T04:02:05;0.50;;;0.15;;
40945;SDS011;55635;50.264;11.918;2023-08-07T04:04:46;0.10;;;0.10;;
40945;SDS011;55635;50.264;11.918;2023-08-07T04:07:27;1.20;;;0.10;;
40945;SDS011;55635;50.264;11.918;2023-08-07T04:10:08;0.60;;;0.20;;
40945;SDS011;55635;50.264;11.918;2023-08-07T04:12:49;0.30;;;0.30;;
40945;SDS011;55635;50.264;11.918;2023-08-07T04:15:30;0.50;;;0.28;;
40945;SDS011;55635;50.264;11.918;2023-08-07T04:18:11;0.70;;;0.45;;
40945;SDS011;55635;50.264;11.918;2023-08-07T04:20:53;0.40;;;0.40;;
40945;SDS011;55635;50.264;11.918;2023-08-07T04:23:34;1.40;;;0.88;;
40945;SDS011;55635;50.264;11.918;2023-08-07T04:26:15;0.63;;;0.40;;
40945;SDS011;55635;50.264;11.918;2023-08-07T04:28:56;0.70;;;0.50;;
40945;SDS011;55635;50.264;11.918;2023-08-07T04:31:37;0.55;;;0.50;;
40945;SDS011;55635;50.264;11.918;2023-08-07T04:34:18;0.40;;;0.40;;
40945;SDS011;55635;50.264;11.918;2023-08-07T04:36:59;2.78;;;0.40;;
40945;SDS011;55635;50.264;11.918;2023-08-07T04:39:40;1.20;;;0.60;;
40945;SDS011;55635;50.264;11.918;2023-08-07T04:42:21;0.40;;;0.40;;
40945;SDS011;55635;50.264;11.918;2023-08-07T04:45:02;0.95;;;0.70;;
40945;SDS011;55635;50.264;11.918;2023-08-07T04:47:43;2.67;;;0.47;;
40945;SDS011;55635;50.264;11.918;2023-08-07T04:50:24;1.58;;;0.60;;
40945;SDS011;55635;50.264;11.918;2023-08-07T04:53:06;0.40;;;0.40;;
40945;SDS011;55635;50.264;11.918;2023-08-07T04:55:47;0.50;;;0.50;;
40945;SDS011;55635;50.264;11.918;2023-08-07T04:58:28;1.70;;;0.60;;
40945;SDS011;55635;50.264;11.918;2023-08-07T05:01:09;1.50;;;0.50;;
40945;SDS011;55635;50.264;11.918;2023-08-07T05:03:50;0.85;;;0.35;;
40945;SDS011;55635;50.264;11.918;2023-08-07T05:06:31;0.40;;;0.40;;
40945;SDS011;55635;50.264;11.918;2023-08-07T05:09:12;0.25;;;0.22;;
40945;SDS011;55635;50.264;11.918;2023-08-07T05:11:53;0.40;;;0.40;;
40945;SDS011;55635;50.264;11.918;2023-08-07T05:14:34;0.20;;;0.15;;
40945;SDS011;55635;50.264;11.918;2023-08-07T05:17:15;1.27;;;0.10;;
40945;SDS011;55635;50.264;11.918;2023-08-07T05:19:56;0.20;;;0.20;;
40945;SDS011;55635;50.264;11.918;2023-08-07T05:22:36;0.10;;;0.10;;
40945;SDS011;55635;50.264;11.918;2023-08-07T05:25:17;0.35;;;0.05;;
40945;SDS011;55635;50.264;11.918;2023-08-07T05:27:58;0.00;;;0.00;;
40945;SDS011;55635;50.264;11.918;2023-08-07T05:30:39;0.00;;;0.00;;
40945;SDS011;55635;50.264;11.918;2023-08-07T05:33:20;0.00;;;0.00;;
40945;SDS011;55635;50.264;11.918;2023-08-07T05:36:01;0.08;;;0.08;;
40945;SDS011;55635;50.264;11.918;2023-08-07T05:38:42;0.28;;;0.00;;
40945;SDS011;55635;50.264;11.918;2023-08-07T05:41:26;0.00;;;0.00;;
40945;SDS011;55635;50.264;11.918;2023-08-07T05:44:07;1.13;;;0.00;;
40945;SDS011;55635;50.264;11.918;2023-08-07T05:46:47;0.00;;;0.00;;
40945;SDS011;55635;50.264;11.918;2023-08-07T05:49:28;0.00;;;0.00;;
40945;SDS011;55635;50.264;11.918;2023-08-07T05:52:09;2.67;;;0.08;;
40945;SDS011;55635;50.264;11.918;2023-08-07T05:54:50;0.00;;;0.00;;
40945;SDS011;55635;50.264;11.918;2023-08-07T05:57:31;0.00;;;0.00;;
40945;SDS011;55635;50.264;11.918;2023-08-07T06:00:12;0.00;;;0.00;;
40945;SDS011;55635;50.264;11.918;2023-08-07T06:02:58;0.10;;;0.00;;
40945;SDS011;55635;50.264;11.918;2023-08-07T06:05:42;0.00;;;0.00;;
40945;SDS011;55635;50.264;11.918;2023-08-07T06:08:23;0.82;;;0.10;;
40945;SDS011;55635;50.264;11.918;2023-08-07T06:11:04;0.00;;;0.00;;
40945;SDS011;55635;50.264;11.918;2023-08-07T06:13:48;0.00;;;0.00;;
40945;SDS011;55635;50.264;11.918;2023-08-07T06:16:29;0.17;;;0.00;;
40945;SDS011;55635;50.264;11.918;2023-08-07T06:19:10;0.00;;;0.00;;
40945;SDS011;55635;50.264;11.918;2023-08-07T06:21:51;1.75;;;0.10;;
40945;SDS011;55635;50.264;11.918;2023-08-07T06:24:32;0.00;;;0.00;;
40945;SDS011;55635;50.264;11.918;2023-08-07T06:27:13;0.00;;;0.00;;
40945;SDS011;55635;50.264;11.918;2023-08-07T06:29:54;0.80;;;0.00;;
40945;SDS011;55635;50.264;11.918;2023-08-07T06:32:35;1.65;;;0.03;;
40945;SDS011;55635;50.264;11.918;2023-08-07T06:35:16;0.00;;;0.00;;
40945;SDS011;55635;50.264;11.918;2023-08-07T06:37:57;1.13;;;0.00;;
40945;SDS011;55635;50.264;11.918;2023-08-07T06:40:38;1.38;;;0.10;;
40945;SDS011;55635;50.264;11.918;2023-08-07T06:43:19;0.00;;;0.00;;
40945;SDS011;55635;50.264;11.918;2023-08-07T06:46:00;0.20;;;0.00;;
40945;SDS011;55635;50.264;11.918;2023-08-07T06:48:41;0.20;;;0.10;;
40945;SDS011;55635;50.264;11.918;2023-08-07T06:51:22;0.45;;;0.20;;
40945;SDS011;55635;50.264;11.918;2023-08-07T06:54:03;0.10;;;0.03;;
40945;SDS011;55635;50.264;11.918;2023-08-07T06:56:44;0.00;;;0.00;;
40945;SDS011;55635;50.264;11.918;2023-08-07T06:59:25;0.20;;;0.20;;
40945;SDS011;55635;50.264;11.918;2023-08-07T07:02:06;0.00;;;0.00;;
40945;SDS011;55635;50.264;11.918;2023-08-07T07:04:47;0.00;;;0.00;;
40945;SDS011;55635;50.264;11.918;2023-08-07T07:07:28;0.13;;;0.00;;
40945;SDS011;55635;50.264;11.918;2023-08-07T07:10:09;0.00;;;0.00;;
40945;SDS011;55635;50.264;11.918;2023-08-07T07:12:50;0.20;;;0.00;;
40945;SDS011;55635;50.264;11.918;2023-08-07T07:15:32;0.20;;;0.00;;
40945;SDS011;55635;50.264;11.918;2023-08-07T07:18:13;0.10;;;0.10;;
40945;SDS011;55635;50.264;11.918;2023-08-07T07:20:57;0.25;;;0.00;;
40945;SDS011;55635;50.264;11.918;2023-08-07T07:23:40;0.10;;;0.00;;
40945;SDS011;55635;50.264;11.918;2023-08-07T07:26:21;3.20;;;0.25;;
40945;SDS011;55635;50.264;11.918;2023-08-07T07:29:02;0.52;;;0.00;;
40945;SDS011;55635;50.264;11.918;2023-08-07T07:31:43;0.20;;;0.10;;
40945;SDS011;55635;50.264;11.918;2023-08-07T07:34:24;0.08;;;0.00;;
40945;SDS011;55635;50.264;11.918;2023-08-07T07:37:05;0.10;;;0.10;;
40945;SDS011;55635;50.264;11.918;2023-08-07T07:39:46;0.00;;;0.00;;
40945;SDS011;55635;50.264;11.918;2023-08-07T07:42:27;4.13;;;0.25;;
40945;SDS011;55635;50.264;11.918;2023-08-07T07:45:08;6.40;;;0.90;;
40945;SDS011;55635;50.264;11.918;2023-08-07T07:47:49;5.25;;;0.25;;
40945;SDS011;55635;50.264;11.918;2023-08-07T07:50:30;2.45;;;0.10;;
40945;SDS011;55635;50.264;11.918;2023-08-07T07:53:11;10.55;;;1.65;;
40945;SDS011;55635;50.264;11.918;2023-08-07T07:55:51;2.47;;;0.40;;
40945;SDS011;55635;50.264;11.918;2023-08-07T07:58:32;0.10;;;0.00;;
40945;SDS011;55635;50.264;11.918;2023-08-07T08:01:13;1.48;;;0.35;;
40945;SDS011;55635;50.264;11.918;2023-08-07T08:03:54;0.30;;;0.20;;
40945;SDS011;55635;50.264;11.918;2023-08-07T08:06:35;0.20;;;0.10;;
40945;SDS011;55635;50.264;11.918;2023-08-07T08:09:16;0.70;;;0.03;;
40945;SDS011;55635;50.264;11.918;2023-08-07T08:11:57;0.38;;;0.05;;
40945;SDS011;55635;50.264;11.918;2023-08-07T08:14:38;0.00;;;0.00;;
40945;SDS011;55635;50.264;11.918;2023-08-07T08:17:19;0.00;;;0.00;;
40945;SDS011;55635;50.264;11.918;2023-08-07T08:20:00;0.35;;;0.10;;
40945;SDS011;55635;50.264;11.918;2023-08-07T08:22:41;7.13;;;0.85;;
40945;SDS011;55635;50.264;11.918;2023-08-07T08:25:22;0.85;;;0.20;;
40945;SDS011;55635;50.264;11.918;2023-08-07T08:28:03;1.42;;;0.20;;
40945;SDS011;55635;50.264;11.918;2023-08-07T08:30:44;0.00;;;0.00;;
40945;SDS011;55635;50.264;11.918;2023-08-07T08:33:25;0.10;;;0.10;;
40945;SDS011;55635;50.264;11.918;2023-08-07T08:36:06;0.00;;;0.00;;
40945;SDS011;55635;50.264;11.918;2023-08-07T08:38:47;0.00;;;0.00;;
40945;SDS011;55635;50.264;11.918;2023-08-07T08:41:28;0.05;;;0.05;;
40945;SDS011;55635;50.264;11.918;2023-08-07T08:44:10;0.05;;;0.05;;
40945;SDS011;55635;50.264;11.918;2023-08-07T08:46:53;0.10;;;0.00;;
40945;SDS011;55635;50.264;11.918;2023-08-07T08:49:43;0.22;;;0.10;;
40945;SDS011;55635;50.264;11.918;2023-08-07T08:52:28;0.10;;;0.10;;
40945;SDS011;55635;50.264;11.918;2023-08-07T08:55:11;0.25;;;0.10;;
40945;SDS011;55635;50.264;11.918;2023-08-07T08:57:53;0.08;;;0.00;;
40945;SDS011;55635;50.264;11.918;2023-08-07T09:00:35;0.17;;;0.10;;
40945;SDS011;55635;50.264;11.918;2023-08-07T09:03:18;0.20;;;0.20;;
40945;SDS011;55635;50.264;11.918;2023-08-07T09:05:59;0.13;;;0.10;;
40945;SDS011;55635;50.264;11.918;2023-08-07T09:08:42;0.10;;;0.10;;
40945;SDS011;55635;50.264;11.918;2023-08-07T09:11:23;1.00;;;0.10;;
40945;SDS011;55635;50.264;11.918;2023-08-07T09:14:06;0.15;;;0.10;;
40945;SDS011;55635;50.264;11.918;2023-08-07T09:16:47;0.15;;;0.15;;
40945;SDS011;55635;50.264;11.918;2023-08-07T09:19:29;0.20;;;0.15;;
40945;SDS011;55635;50.264;11.918;2023-08-07T09:22:11;0.20;;;0.20;;
40945;SDS011;55635;50.264;11.918;2023-08-07T09:24:51;0.63;;;0.10;;
40945;SDS011;55635;50.264;11.918;2023-08-07T09:27:33;0.30;;;0.20;;
40945;SDS011;55635;50.264;11.918;2023-08-07T09:30:15;0.10;;;0.10;;
40945;SDS011;55635;50.264;11.918;2023-08-07T09:32:57;0.55;;;0.20;;
40945;SDS011;55635;50.264;11.918;2023-08-07T09:35:41;0.63;;;0.25;;
40945;SDS011;55635;50.264;11.918;2023-08-07T09:38:22;0.20;;;0.20;;
40945;SDS011;55635;50.264;11.918;2023-08-07T09:41:03;1.45;;;0.20;;
40945;SDS011;55635;50.264;11.918;2023-08-07T09:43:44;0.20;;;0.20;;
40945;SDS011;55635;50.264;11.918;2023-08-07T09:46:26;0.10;;;0.10;;
40945;SDS011;55635;50.264;11.918;2023-08-07T09:49:07;0.13;;;0.13;;
40945;SDS011;55635;50.264;11.918;2023-08-07T09:51:48;0.22;;;0.20;;
40945;SDS011;55635;50.264;11.918;2023-08-07T09:54:30;4.28;;;0.30;;
40945;SDS011;55635;50.264;11.918;2023-08-07T09:57:11;0.20;;;0.20;;
40945;SDS011;55635;50.264;11.918;2023-08-07T09:59:54;0.13;;;0.13;;
40945;SDS011;55635;50.264;11.918;2023-08-07T10:02:35;0.80;;;0.28;;
40945;SDS011;55635;50.264;11.918;2023-08-07T10:05:16;0.30;;;0.15;;
40945;SDS011;55635;50.264;11.918;2023-08-07T10:07:58;0.10;;;0.10;;
40945;SDS011;55635;50.264;11.918;2023-08-07T10:10:39;0.10;;;0.10;;
40945;SDS011;55635;50.264;11.918;2023-08-07T10:13:21;0.65;;;0.20;;
40945;SDS011;55635;50.264;11.918;2023-08-07T10:16:03;0.10;;;0.10;;
40945;SDS011;55635;50.264;11.918;2023-08-07T10:18:45;0.20;;;0.20;;
40945;SDS011;55635;50.264;11.918;2023-08-07T10:21:26;0.30;;;0.30;;
40945;SDS011;55635;50.264;11.918;2023-08-07T10:24:08;0.17;;;0.17;;
40945;SDS011;55635;50.264;11.918;2023-08-07T10:26:50;0.15;;;0.10;;
40945;SDS011;55635;50.264;11.918;2023-08-07T10:29:32;3.13;;;0.70;;
40945;SDS011;55635;50.264;11.918;2023-08-07T10:32:15;0.65;;;0.10;;
40945;SDS011;55635;50.264;11.918;2023-08-07T10:35:02;0.10;;;0.10;;
40945;SDS011;55635;50.264;11.918;2023-08-07T10:37:45;0.52;;;0.20;;
40945;SDS011;55635;50.264;11.918;2023-08-07T10:40:25;0.75;;;0.20;;
40945;SDS011;55635;50.264;11.918;2023-08-07T10:46:04;0.10;;;0.10;;
40945;SDS011;55635;50.264;11.918;2023-08-07T10:48:53;1.13;;;0.20;;
40945;SDS011;55635;50.264;11.918;2023-08-07T10:51:37;0.10;;;0.10;;
40945;SDS011;55635;50.264;11.918;2023-08-07T10:54:19;0.52;;;0.10;;
40945;SDS011;55635;50.264;11.918;2023-08-07T10:57:00;0.20;;;0.17;;
40945;SDS011;55635;50.264;11.918;2023-08-07T11:00:25;0.20;;;0.20;;
40945;SDS011;55635;50.264;11.918;2023-08-07T11:02:48;0.30;;;0.10;;
40945;SDS011;55635;50.264;11.918;2023-08-07T11:05:30;0.75;;;0.17;;
40945;SDS011;55635;50.264;11.918;2023-08-07T11:08:11;0.17;;;0.13;;
40945;SDS011;55635;50.264;11.918;2023-08-07T11:10:53;0.25;;;0.10;;
40945;SDS011;55635;50.264;11.918;2023-08-07T11:13:35;0.50;;;0.25;;
40945;SDS011;55635;50.264;11.918;2023-08-07T11:16:16;0.68;;;0.17;;
40945;SDS011;55635;50.264;11.918;2023-08-07T11:19:00;0.10;;;0.10;;
40945;SDS011;55635;50.264;11.918;2023-08-07T11:21:42;0.20;;;0.10;;
40945;SDS011;55635;50.264;11.918;2023-08-07T11:24:26;0.20;;;0.20;;
40945;SDS011;55635;50.264;11.918;2023-08-07T11:27:08;1.65;;;0.20;;
40945;SDS011;55635;50.264;11.918;2023-08-07T11:29:49;0.15;;;0.15;;
40945;SDS011;55635;50.264;11.918;2023-08-07T11:32:30;0.30;;;0.30;;
40945;SDS011;55635;50.264;11.918;2023-08-07T11:35:11;0.65;;;0.40;;
40945;SDS011;55635;50.264;11.918;2023-08-07T11:37:52;0.40;;;0.40;;
40945;SDS011;55635;50.264;11.918;2023-08-07T11:40:34;0.40;;;0.40;;
40945;SDS011;55635;50.264;11.918;2023-08-07T11:43:15;0.35;;;0.30;;
40945;SDS011;55635;50.264;11.918;2023-08-07T11:45:56;0.40;;;0.40;;
40945;SDS011;55635;50.264;11.918;2023-08-07T11:48:40;0.40;;;0.40;;
40945;SDS011;55635;50.264;11.918;2023-08-07T11:51:22;5.75;;;0.40;;
40945;SDS011;55635;50.264;11.918;2023-08-07T11:54:04;0.20;;;0.20;;
40945;SDS011;55635;50.264;11.918;2023-08-07T11:56:45;0.40;;;0.40;;
40945;SDS011;55635;50.264;11.918;2023-08-07T11:59:26;0.32;;;0.32;;
40945;SDS011;55635;50.264;11.918;2023-08-07T12:02:10;0.40;;;0.40;;
40945;SDS011;55635;50.264;11.918;2023-08-07T12:04:58;0.40;;;0.40;;
40945;SDS011;55635;50.264;11.918;2023-08-07T12:07:39;0.40;;;0.40;;
40945;SDS011;55635;50.264;11.918;2023-08-07T12:10:21;0.40;;;0.40;;
40945;SDS011;55635;50.264;11.918;2023-08-07T12:13:03;0.80;;;0.50;;
40945;SDS011;55635;50.264;11.918;2023-08-07T12:15:50;0.60;;;0.60;;
40945;SDS011;55635;50.264;11.918;2023-08-07T12:18:33;0.70;;;0.70;;
40945;SDS011;55635;50.264;11.918;2023-08-07T12:21:16;0.63;;;0.43;;
40945;SDS011;55635;50.264;11.918;2023-08-07T12:24:02;0.55;;;0.55;;
40945;SDS011;55635;50.264;11.918;2023-08-07T12:26:46;0.63;;;0.50;;
40945;SDS011;55635;50.264;11.918;2023-08-07T12:29:27;0.43;;;0.43;;
40945;SDS011;55635;50.264;11.918;2023-08-07T12:32:09;0.88;;;0.70;;
40945;SDS011;55635;50.264;11.918;2023-08-07T12:34:50;0.43;;;0.43;;
40945;SDS011;55635;50.264;11.918;2023-08-07T12:37:30;0.60;;;0.60;;
40945;SDS011;55635;50.264;11.918;2023-08-07T12:40:11;0.60;;;0.57;;
40945;SDS011;55635;50.264;11.918;2023-08-07T12:42:52;1.45;;;0.50;;
40945;SDS011;55635;50.264;11.918;2023-08-07T12:45:33;0.50;;;0.40;;
40945;SDS011;55635;50.264;11.918;2023-08-07T12:48:14;0.60;;;0.60;;
40945;SDS011;55635;50.264;11.918;2023-08-07T12:50:55;0.40;;;0.40;;
40945;SDS011;55635;50.264;11.918;2023-08-07T12:53:36;0.38;;;0.38;;
40945;SDS011;55635;50.264;11.918;2023-08-07T12:56:17;0.38;;;0.38;;
40945;SDS011;55635;50.264;11.918;2023-08-07T12:58:58;2.03;;;0.60;;
40945;SDS011;55635;50.264;11.918;2023-08-07T13:01:39;0.40;;;0.38;;
40945;SDS011;55635;50.264;11.918;2023-08-07T13:04:19;0.60;;;0.40;;
40945;SDS011;55635;50.264;11.918;2023-08-07T13:07:01;0.32;;;0.32;;
40945;SDS011;55635;50.264;11.918;2023-08-07T13:09:41;0.50;;;0.50;;
40945;SDS011;55635;50.264;11.918;2023-08-07T13:12:22;0.45;;;0.45;;
40945;SDS011;55635;50.264;11.918;2023-08-07T13:15:04;0.77;;;0.60;;
40945;SDS011;55635;50.264;11.918;2023-08-07T13:17:47;0.30;;;0.30;;
40945;SDS011;55635;50.264;11.918;2023-08-07T13:20:27;0.80;;;0.40;;
40945;SDS011;55635;50.264;11.918;2023-08-07T13:23:13;0.35;;;0.35;;
40945;SDS011;55635;50.264;11.918;2023-08-07T13:25:54;0.40;;;0.40;;
40945;SDS011;55635;50.264;11.918;2023-08-07T13:28:35;0.40;;;0.40;;
40945;SDS011;55635;50.264;11.918;2023-08-07T13:31:16;1.55;;;0.55;;
40945;SDS011;55635;50.264;11.918;2023-08-07T13:33:57;0.57;;;0.52;;
40945;SDS011;55635;50.264;11.918;2023-08-07T13:36:38;0.30;;;0.30;;
40945;SDS011;55635;50.264;11.918;2023-08-07T13:39:19;1.08;;;0.60;;
40945;SDS011;55635;50.264;11.918;2023-08-07T13:42:01;0.55;;;0.55;;
40945;SDS011;55635;50.264;11.918;2023-08-07T13:44:41;0.60;;;0.60;;
40945;SDS011;55635;50.264;11.918;2023-08-07T13:47:23;0.70;;;0.70;;
40945;SDS011;55635;50.264;11.918;2023-08-07T13:50:06;1.02;;;0.93;;
40945;SDS011;55635;50.264;11.918;2023-08-07T13:52:47;0.70;;;0.70;;
40945;SDS011;55635;50.264;11.918;2023-08-07T13:55:28;2.60;;;0.73;;
40945;SDS011;55635;50.264;11.918;2023-08-07T13:58:09;1.10;;;1.10;;
40945;SDS011;55635;50.264;11.918;2023-08-07T14:00:50;1.35;;;0.70;;
40945;SDS011;55635;50.264;11.918;2023-08-07T14:03:31;0.73;;;0.73;;
40945;SDS011;55635;50.264;11.918;2023-08-07T14:06:12;0.70;;;0.60;;
40945;SDS011;55635;50.264;11.918;2023-08-07T14:08:53;0.65;;;0.65;;
40945;SDS011;55635;50.264;11.918;2023-08-07T14:11:34;1.05;;;0.70;;
40945;SDS011;55635;50.264;11.918;2023-08-07T14:14:16;3.15;;;0.68;;
40945;SDS011;55635;50.264;11.918;2023-08-07T14:16:57;0.50;;;0.50;;
40945;SDS011;55635;50.264;11.918;2023-08-07T14:19:40;3.22;;;1.17;;
40945;SDS011;55635;50.264;11.918;2023-08-07T14:22:21;0.70;;;0.70;;
40945;SDS011;55635;50.264;11.918;2023-08-07T14:25:02;0.50;;;0.50;;
40945;SDS011;55635;50.264;11.918;2023-08-07T14:27:43;0.57;;;0.45;;
40945;SDS011;55635;50.264;11.918;2023-08-07T14:30:24;1.40;;;0.50;;
40945;SDS011;55635;50.264;11.918;2023-08-07T14:33:05;0.50;;;0.50;;
40945;SDS011;55635;50.264;11.918;2023-08-07T14:35:46;1.67;;;0.50;;
40945;SDS011;55635;50.264;11.918;2023-08-07T14:38:27;1.45;;;0.50;;
40945;SDS011;55635;50.264;11.918;2023-08-07T14:41:09;0.38;;;0.38;;
40945;SDS011;55635;50.264;11.918;2023-08-07T14:43:50;0.40;;;0.40;;
40945;SDS011;55635;50.264;11.918;2023-08-07T14:46:30;0.40;;;0.38;;
40945;SDS011;55635;50.264;11.918;2023-08-07T14:49:11;0.40;;;0.40;;
40945;SDS011;55635;50.264;11.918;2023-08-07T14:51:52;0.60;;;0.47;;
40945;SDS011;55635;50.264;11.918;2023-08-07T14:54:33;0.50;;;0.50;;
40945;SDS011;55635;50.264;11.918;2023-08-07T14:57:14;0.52;;;0.52;;
40945;SDS011;55635;50.264;11.918;2023-08-07T14:59:55;0.60;;;0.60;;
40945;SDS011;55635;50.264;11.918;2023-08-07T15:02:36;1.85;;;0.60;;
40945;SDS011;55635;50.264;11.918;2023-08-07T15:05:17;2.15;;;0.50;;
40945;SDS011;55635;50.264;11.918;2023-08-07T15:07:59;0.95;;;0.60;;
40945;SDS011;55635;50.264;11.918;2023-08-07T15:10:41;0.85;;;0.85;;
40945;SDS011;55635;50.264;11.918;2023-08-07T15:13:21;0.88;;;0.70;;
40945;SDS011;55635;50.264;11.918;2023-08-07T15:16:02;1.40;;;0.60;;
40945;SDS011;55635;50.264;11.918;2023-08-07T15:18:43;1.17;;;0.70;;
40945;SDS011;55635;50.264;11.918;2023-08-07T15:21:24;0.80;;;0.80;;
40945;SDS011;55635;50.264;11.918;2023-08-07T15:24:05;1.13;;;0.90;;
40945;SDS011;55635;50.264;11.918;2023-08-07T15:26:46;2.28;;;1.10;;
40945;SDS011;55635;50.264;11.918;2023-08-07T15:29:27;1.48;;;1.17;;
40945;SDS011;55635;50.264;11.918;2023-08-07T15:32:08;0.90;;;0.90;;
40945;SDS011;55635;50.264;11.918;2023-08-07T15:34:49;1.00;;;1.00;;
40945;SDS011;55635;50.264;11.918;2023-08-07T15:37:30;1.27;;;1.10;;
40945;SDS011;55635;50.264;11.918;2023-08-07T15:40:10;1.50;;;1.00;;
40945;SDS011;55635;50.264;11.918;2023-08-07T15:42:51;1.08;;;1.08;;
40945;SDS011;55635;50.264;11.918;2023-08-07T15:45:32;1.10;;;1.00;;
40945;SDS011;55635;50.264;11.918;2023-08-07T15:48:13;1.83;;;1.50;;
40945;SDS011;55635;50.264;11.918;2023-08-07T15:50:54;1.88;;;1.60;;
40945;SDS011;55635;50.264;11.918;2023-08-07T15:53:35;1.45;;;1.20;;
40945;SDS011;55635;50.264;11.918;2023-08-07T15:56:16;2.65;;;1.30;;
40945;SDS011;55635;50.264;11.918;2023-08-07T15:58:58;1.80;;;1.70;;
40945;SDS011;55635;50.264;11.918;2023-08-07T16:01:39;1.83;;;1.73;;
40945;SDS011;55635;50.264;11.918;2023-08-07T16:04:20;3.65;;;2.00;;